createdAt,value
2018-11-27T00:04:24.115Z,58.60
2018-11-27T00:06:53.103Z,58.68
2018-11-27T00:09:22.124Z,56.90
2018-11-27T00:11:51.150Z,60.93
2018-11-27T00:14:20.216Z,64.30
2018-11-27T00:16:49.438Z,63.07
2018-11-27T00:19:18.469Z,59.70
2018-11-27T00:21:47.519Z,60.13
2018-11-27T00:24:16.598Z,61.53
2018-11-27T00:26:45.679Z,59.23
2018-11-27T00:29:14.667Z,60.00
2018-11-27T00:31:43.701Z,55.33
2018-11-27T00:34:12.730Z,57.30
2018-11-27T00:36:41.855Z,59.77
2018-11-27T00:39:12.875Z,59.93
2018-11-27T00:41:42.822Z,61.80
2018-11-27T00:44:12.009Z,56.67
2018-11-27T00:46:41.000Z,59.63
2018-11-27T00:49:10.015Z,56.90
2018-11-27T00:51:39.054Z,58.80
2018-11-27T00:54:08.189Z,58.43
2018-11-27T00:56:37.170Z,58.20
2018-11-27T00:59:06.220Z,59.23
2018-11-27T01:01:35.247Z,64.27
2018-11-27T01:04:04.452Z,60.07
2018-11-27T01:06:33.490Z,56.50
2018-11-27T01:09:02.693Z,60.50
2018-11-27T01:11:31.678Z,57.60
2018-11-27T01:14:00.707Z,59.10
2018-11-27T01:16:29.787Z,57.43
2018-11-27T01:18:58.835Z,57.13
2018-11-27T01:21:27.902Z,56.90
2018-11-27T01:23:56.930Z,65.60
2018-11-27T01:26:26.006Z,56.20
2018-11-27T01:28:55.046Z,59.90
2018-11-27T01:31:24.116Z,60.63
2018-11-27T01:33:53.159Z,55.95
2018-11-27T01:36:22.419Z,53.20
2018-11-27T01:38:51.495Z,57.13
2018-11-27T01:41:20.458Z,52.97
2018-11-27T01:43:49.490Z,58.47
2018-11-27T01:46:18.499Z,57.48
2018-11-27T01:48:47.494Z,61.77
2018-11-27T01:51:16.548Z,52.67
2018-11-27T01:53:45.606Z,56.37
2018-11-27T01:56:14.662Z,59.07
2018-11-27T01:58:43.678Z,59.47
2018-11-27T02:01:12.687Z,56.03
2018-11-27T02:03:41.722Z,57.17
2018-11-27T02:06:10.738Z,55.70
2018-11-27T02:08:39.739Z,58.33
2018-11-27T02:11:08.958Z,59.07
2018-11-27T02:13:38.015Z,60.63
2018-11-27T02:16:07.617Z,65.23
2018-11-27T02:18:36.995Z,57.70
2018-11-27T02:21:06.071Z,54.00
2018-11-27T02:23:35.232Z,54.60
2018-11-27T02:26:04.313Z,60.90
2018-11-27T02:28:33.356Z,58.97
2018-11-27T02:31:02.374Z,61.80
2018-11-27T02:33:31.425Z,53.47
2018-11-27T02:36:00.427Z,56.07
2018-11-27T02:38:29.451Z,57.27
2018-11-27T02:40:58.467Z,53.73
2018-11-27T02:43:27.511Z,47.73
2018-11-27T02:45:56.521Z,55.23
2018-11-27T02:48:25.608Z,52.73
2018-11-27T02:50:54.627Z,51.10
2018-11-27T02:53:23.643Z,56.45
2018-11-27T02:55:52.679Z,59.53
2018-11-27T02:58:21.694Z,52.97
2018-11-27T03:00:50.765Z,55.30
2018-11-27T03:03:19.943Z,59.60
2018-11-27T03:05:49.003Z,60.28
2018-11-27T03:08:18.063Z,56.00
2018-11-27T03:10:47.098Z,53.57
2018-11-27T03:13:16.147Z,50.37
2018-11-27T03:15:46.132Z,54.83
2018-11-27T03:18:16.165Z,51.28
2018-11-27T03:20:46.348Z,58.73
2018-11-27T03:23:16.322Z,56.37
2018-11-27T03:25:46.267Z,53.30
2018-11-27T03:28:15.329Z,52.80
2018-11-27T03:30:44.358Z,58.83
2018-11-27T03:33:13.352Z,55.63
2018-11-27T03:35:42.395Z,56.67
2018-11-27T03:38:11.458Z,57.00
2018-11-27T03:40:40.443Z,54.60
2018-11-27T03:43:09.547Z,58.17
2018-11-27T03:45:38.571Z,50.63
2018-11-27T03:48:07.563Z,61.33
2018-11-27T03:50:36.559Z,56.30
2018-11-27T03:53:05.861Z,58.80
2018-11-27T03:55:35.153Z,55.97
2018-11-27T03:58:04.760Z,57.35
2018-11-27T04:00:34.783Z,56.23
2018-11-27T04:03:09.144Z,53.38
2018-11-27T04:05:38.742Z,51.93
2018-11-27T04:08:10.092Z,54.30
2018-11-27T04:10:40.778Z,56.77
2018-11-27T04:13:11.064Z,56.20
2018-11-27T04:15:40.794Z,58.73
2018-11-27T04:23:06.879Z,59.33
2018-11-27T04:25:35.879Z,52.90
2018-11-27T04:28:04.884Z,51.77
2018-11-27T04:30:33.926Z,49.70
2018-11-27T04:33:03.039Z,59.40
2018-11-27T04:35:32.040Z,49.80
2018-11-27T04:38:01.124Z,56.17
2018-11-27T04:40:30.188Z,57.97
2018-11-27T04:42:59.210Z,56.07
2018-11-27T04:45:28.244Z,55.50
2018-11-27T04:47:57.339Z,56.17
2018-11-27T04:50:26.459Z,56.50
2018-11-27T04:52:55.511Z,47.43
2018-11-27T04:55:24.518Z,53.00
2018-11-27T04:57:53.769Z,49.50
2018-11-27T05:00:27.328Z,50.83
2018-11-27T05:02:56.447Z,50.83
2018-11-27T05:05:25.439Z,50.25
2018-11-27T05:07:54.432Z,54.80
2018-11-27T05:10:24.312Z,51.73
2018-11-27T05:12:53.437Z,52.97
2018-11-27T05:15:25.203Z,50.12
2018-11-27T05:17:56.852Z,62.73
2018-11-27T05:20:25.885Z,51.70
2018-11-27T05:22:54.922Z,56.40
2018-11-27T05:25:24.002Z,54.80
2018-11-27T05:27:55.781Z,53.30
2018-11-27T05:30:28.582Z,57.25
2018-11-27T05:32:58.118Z,62.33
2018-11-27T05:35:30.198Z,59.40
2018-11-27T05:38:01.388Z,57.17
2018-11-27T05:40:30.426Z,56.57
2018-11-27T05:43:02.889Z,54.40
2018-11-27T05:45:32.552Z,56.50
2018-11-27T05:48:01.621Z,58.07
2018-11-27T05:50:30.667Z,54.83
2018-11-27T05:52:59.809Z,53.50
2018-11-27T05:55:28.868Z,57.67
2018-11-27T05:57:58.167Z,57.43
2018-11-27T06:00:28.882Z,63.67
2018-11-27T06:03:02.033Z,58.87
2018-11-27T06:05:31.213Z,57.67
2018-11-27T06:08:00.278Z,63.87
2018-11-27T06:10:29.351Z,59.17
2018-11-27T06:12:58.486Z,64.87
2018-11-27T06:15:27.545Z,65.47
2018-11-27T06:17:59.578Z,64.03
2018-11-27T06:20:28.657Z,71.23
2018-11-27T06:22:57.713Z,65.17
2018-11-27T06:25:29.083Z,69.80
2018-11-27T06:28:01.464Z,67.20
2018-11-27T06:30:33.214Z,67.92
2018-11-27T06:33:03.784Z,62.38
2018-11-27T06:35:37.739Z,65.40
2018-11-27T06:38:09.155Z,66.97
2018-11-27T06:40:43.849Z,62.50
2018-11-27T06:43:14.392Z,63.33
2018-11-27T06:45:44.777Z,63.05
2018-11-27T06:48:14.719Z,68.12
2018-11-27T06:50:44.407Z,68.50
2018-11-27T06:53:15.109Z,66.63
2018-11-27T06:55:45.580Z,68.17
2018-11-27T06:58:15.446Z,60.33
2018-11-27T07:00:45.601Z,64.67
2018-11-27T07:03:16.628Z,57.78
2018-11-27T07:05:47.022Z,57.83
2018-11-27T07:10:53.355Z,61.33
2018-11-27T07:13:25.291Z,64.93
2018-11-27T07:15:55.851Z,61.67
2018-11-27T07:18:26.991Z,70.30
2018-11-27T07:20:58.999Z,74.87
2018-11-27T07:23:29.737Z,63.90
2018-11-27T07:26:00.455Z,71.27
2018-11-27T07:28:30.898Z,64.57
2018-11-27T07:31:01.430Z,60.17
2018-11-27T07:33:31.206Z,69.77
2018-11-27T07:36:03.310Z,57.60
2018-11-27T07:38:36.498Z,61.35
2018-11-27T07:41:07.745Z,63.07
2018-11-27T07:43:38.304Z,68.43
2018-11-27T07:46:08.334Z,71.55
2018-11-27T07:48:38.609Z,77.37
2018-11-27T07:51:09.602Z,73.70
2018-11-27T07:53:40.012Z,74.83
2018-11-27T07:56:13.901Z,78.87
2018-11-27T07:58:43.451Z,78.43
2018-11-27T08:01:14.146Z,74.37
2018-11-27T08:03:43.911Z,77.40
2018-11-27T08:06:13.467Z,82.07
2018-11-27T08:08:42.979Z,84.30
2018-11-27T08:11:12.318Z,80.62
2018-11-27T08:13:42.444Z,84.53
2018-11-27T08:16:11.998Z,83.82
2018-11-27T08:18:41.663Z,78.57
2018-11-27T08:21:11.233Z,88.73
2018-11-27T08:23:41.343Z,81.92
2018-11-27T08:26:11.097Z,85.23
2018-11-27T08:28:41.563Z,75.33
2018-11-27T08:31:12.168Z,81.47
2018-11-27T08:33:41.790Z,76.90
2018-11-27T08:36:11.498Z,77.57
2018-11-27T08:38:41.575Z,77.43
2018-11-27T08:41:11.729Z,74.40
2018-11-27T08:43:42.599Z,69.33
2018-11-27T08:46:13.732Z,70.47
2018-11-27T08:48:44.009Z,68.00
2018-11-27T08:51:14.533Z,63.93
2018-11-27T08:53:46.317Z,69.97
2018-11-27T08:56:15.866Z,65.93
2018-11-27T08:58:48.384Z,62.27
2018-11-27T09:01:18.308Z,58.07
2018-11-27T09:04:00.351Z,62.90
2018-11-27T09:09:08.867Z,62.10
2018-11-27T09:11:38.145Z,68.52
2018-11-27T09:14:07.203Z,62.17
2018-11-27T09:16:36.227Z,58.90
2018-11-27T09:19:05.691Z,62.77
2018-11-27T09:21:34.694Z,68.73
2018-11-27T09:26:50.248Z,62.93
2018-11-27T09:29:21.943Z,71.80
2018-11-27T09:31:51.682Z,68.90
2018-11-27T09:34:21.163Z,70.67
2018-11-27T09:36:51.683Z,63.33
2018-11-27T09:39:21.091Z,60.60
2018-11-27T09:41:53.193Z,69.93
2018-11-27T09:44:22.690Z,92.55
2018-11-27T09:46:52.173Z,92.80
2018-11-27T09:49:22.807Z,77.23
2018-11-27T09:51:52.448Z,68.20
2018-11-27T09:54:22.686Z,82.97
2018-11-27T09:56:52.201Z,84.33
2018-11-27T09:59:21.505Z,88.70
2018-11-27T10:01:55.852Z,73.17
2018-11-27T10:04:27.369Z,87.37
2018-11-27T10:06:58.460Z,90.40
2018-11-27T10:09:29.291Z,82.10
2018-11-27T10:11:59.067Z,86.27
2018-11-27T10:14:29.787Z,85.77
2018-11-27T10:16:59.487Z,85.75
2018-11-27T10:19:30.466Z,85.87
2018-11-27T10:22:00.303Z,84.30
2018-11-27T10:24:30.908Z,82.80
2018-11-27T10:27:00.977Z,79.83
2018-11-27T10:29:31.299Z,78.20
2018-11-27T10:32:03.013Z,80.57
2018-11-27T10:34:32.652Z,68.53
2018-11-27T10:37:02.157Z,71.97
2018-11-27T10:39:31.590Z,72.30
2018-11-27T10:42:01.127Z,84.43
2018-11-27T10:44:33.626Z,83.90
2018-11-27T10:47:04.468Z,66.37
2018-11-27T10:49:38.137Z,77.83
2018-11-27T10:52:08.335Z,72.73
2018-11-27T10:54:37.899Z,73.97
2018-11-27T10:57:08.002Z,70.57
2018-11-27T10:59:37.810Z,70.83
2018-11-27T11:02:13.088Z,73.30
2018-11-27T11:05:20.339Z,92.03
2018-11-27T11:07:51.915Z,94.00
2018-11-27T11:10:23.553Z,79.33
2018-11-27T11:12:53.749Z,74.60
2018-11-27T11:15:23.649Z,76.93
2018-11-27T11:17:53.620Z,78.13
2018-11-27T11:20:24.014Z,74.30
2018-11-27T11:22:54.651Z,67.33
2018-11-27T11:25:25.332Z,66.97
2018-11-27T11:27:59.091Z,68.07
2018-11-27T11:30:30.132Z,62.55
2018-11-27T11:33:00.701Z,64.34
2018-11-27T11:35:30.951Z,63.25
2018-11-27T11:38:01.593Z,58.77
2018-11-27T11:40:33.971Z,69.13
2018-11-27T11:43:03.890Z,64.87
2018-11-27T11:45:34.238Z,56.53
2018-11-27T11:48:04.141Z,53.53
2018-11-27T11:50:35.761Z,60.03
2018-11-27T11:53:17.514Z,52.60
2018-11-27T11:55:50.148Z,55.30
2018-11-27T11:58:19.905Z,50.03
2018-11-27T12:00:51.991Z,46.90
2018-11-27T12:03:21.520Z,45.83
2018-11-27T12:05:51.876Z,46.83
2018-11-27T12:08:21.594Z,46.23
2018-11-27T12:10:51.561Z,45.33
2018-11-27T12:13:25.652Z,39.03
2018-11-27T12:15:56.009Z,39.50
2018-11-27T12:18:25.689Z,39.90
2018-11-27T12:20:55.460Z,42.80
2018-11-27T12:23:25.320Z,42.30
2018-11-27T12:25:55.830Z,35.30
2018-11-27T12:33:25.503Z,35.57
2018-11-27T12:35:54.523Z,33.13
2018-11-27T12:38:23.594Z,35.40
2018-11-27T12:40:52.610Z,33.67
2018-11-27T12:43:21.693Z,33.90
2018-11-27T12:45:50.704Z,33.30
2018-11-27T12:48:19.916Z,27.67
2018-11-27T12:50:49.664Z,32.73
2018-11-27T12:53:19.258Z,30.77
2018-11-27T12:55:51.187Z,33.93
2018-11-27T12:58:20.254Z,32.80
2018-11-27T13:00:49.484Z,32.57
2018-11-27T13:03:18.610Z,31.23
2018-11-27T13:05:48.093Z,32.37
2018-11-27T13:08:22.012Z,33.27
2018-11-27T13:10:51.413Z,36.07
2018-11-27T13:13:20.505Z,29.53
2018-11-27T13:15:49.586Z,31.63
2018-11-27T13:18:18.663Z,35.80
2018-11-27T13:20:47.695Z,30.27
2018-11-27T13:23:16.713Z,31.93
2018-11-27T13:25:45.882Z,36.53
2018-11-27T13:28:15.559Z,32.37
2018-11-27T13:30:55.914Z,37.98
2018-11-27T13:33:31.420Z,32.90
2018-11-27T13:36:00.573Z,35.40
2018-11-27T13:38:29.622Z,34.63
2018-11-27T13:40:58.655Z,33.33
2018-11-27T13:43:29.322Z,33.58
2018-11-27T13:46:00.011Z,31.90
2018-11-27T13:48:29.383Z,36.83
2018-11-27T13:50:58.421Z,31.83
2018-11-27T13:53:27.486Z,32.10
2018-11-27T13:55:56.551Z,34.77
2018-11-27T13:58:25.610Z,39.27
2018-11-27T14:00:54.674Z,40.33
2018-11-27T14:03:23.703Z,33.97
2018-11-27T14:05:52.719Z,37.43
2018-11-27T14:08:21.801Z,33.63
2018-11-27T14:10:50.849Z,34.90
2018-11-27T14:13:19.926Z,32.93
2018-11-27T14:15:48.950Z,30.33
2018-11-27T14:18:18.398Z,28.40
2018-11-27T14:20:47.488Z,27.57
2018-11-27T14:23:16.483Z,29.03
2018-11-27T14:25:45.514Z,30.00
2018-11-27T14:28:14.531Z,27.60
2018-11-27T14:30:43.593Z,23.83
2018-11-27T14:33:12.606Z,25.80
2018-11-27T14:35:41.639Z,26.70
2018-11-27T14:38:11.658Z,27.05
2018-11-27T14:40:41.675Z,28.23
2018-11-27T14:43:11.754Z,27.82
2018-11-27T14:45:40.795Z,27.52
2018-11-27T14:48:09.942Z,24.87
2018-11-27T14:50:38.978Z,26.93
2018-11-27T14:53:08.099Z,24.40
2018-11-27T14:55:37.322Z,26.53
2018-11-27T14:58:06.804Z,31.60
2018-11-27T15:00:35.919Z,28.03
2018-11-27T15:03:05.624Z,28.47
2018-11-27T15:05:37.312Z,25.00
2018-11-27T15:08:08.903Z,28.17
2018-11-27T15:10:37.926Z,24.77
2018-11-27T15:13:08.006Z,34.10
2018-11-27T15:15:37.248Z,28.07
2018-11-27T15:18:07.232Z,31.07
2018-11-27T15:20:36.303Z,28.73
2018-11-27T15:23:05.331Z,28.80
2018-11-27T15:25:34.443Z,27.40
2018-11-27T15:28:03.596Z,30.20
2018-11-27T15:30:38.546Z,30.77
2018-11-27T15:33:07.927Z,29.33
2018-11-27T15:35:37.886Z,23.63
2018-11-27T15:38:07.690Z,27.03
2018-11-27T15:40:38.203Z,25.77
2018-11-27T15:43:07.374Z,24.20
2018-11-27T15:45:36.382Z,27.73
2018-11-27T15:48:08.152Z,25.10
2018-11-27T15:50:37.300Z,24.62
2018-11-27T15:53:06.705Z,24.07
2018-11-27T15:55:38.954Z,27.07
2018-11-27T15:58:13.535Z,25.20
2018-11-27T16:00:43.683Z,25.75
2018-11-27T16:03:12.999Z,25.55
2018-11-27T16:05:44.196Z,23.43
2018-11-27T16:08:13.699Z,27.10
2018-11-27T16:10:42.730Z,27.23
2018-11-27T16:13:11.850Z,28.00
2018-11-27T16:15:41.938Z,27.07
2018-11-27T16:18:11.237Z,26.93
2018-11-27T16:20:40.316Z,24.70
2018-11-27T16:23:09.447Z,28.23
2018-11-27T16:25:38.519Z,27.10
2018-11-27T16:28:07.635Z,30.00
2018-11-27T16:30:36.675Z,24.13
2018-11-27T16:33:06.375Z,29.92
2018-11-27T16:35:35.547Z,29.37
2018-11-27T16:38:04.769Z,26.57
2018-11-27T16:40:37.344Z,26.83
2018-11-27T16:43:06.522Z,23.63
2018-11-27T16:45:35.552Z,25.67
2018-11-27T16:48:04.584Z,23.80
2018-11-27T16:50:34.390Z,24.65
2018-11-27T16:53:04.435Z,25.65
2018-11-27T16:55:34.522Z,25.90
2018-11-27T16:58:03.633Z,23.93
2018-11-27T17:00:34.658Z,26.13
2018-11-27T17:03:05.334Z,27.43
2018-11-27T17:05:37.713Z,24.77
2018-11-27T17:08:06.891Z,22.83
2018-11-27T17:10:36.314Z,24.33
2018-11-27T17:13:08.140Z,24.23
2018-11-27T17:15:37.324Z,22.60
2018-11-27T17:18:06.863Z,24.90
2018-11-27T17:20:38.112Z,27.07
2018-11-27T17:23:10.650Z,24.13
2018-11-27T17:25:39.727Z,22.47
2018-11-27T17:28:18.780Z,26.10
2018-11-27T17:30:59.942Z,21.00
2018-11-27T17:33:33.668Z,20.63
2018-11-27T17:36:03.730Z,23.90
2018-11-27T17:38:32.727Z,21.43
2018-11-27T17:41:02.223Z,22.17
2018-11-27T17:43:31.278Z,20.97
2018-11-27T17:46:00.382Z,21.73
2018-11-27T17:48:29.450Z,24.63
2018-11-27T17:50:58.628Z,22.77
2018-11-27T17:53:27.824Z,25.37
2018-11-27T17:55:56.905Z,23.80
2018-11-27T17:58:26.072Z,23.97
2018-11-27T18:00:55.134Z,26.75
2018-11-27T18:03:24.202Z,23.10
2018-11-27T18:05:53.279Z,23.67
2018-11-27T18:08:22.351Z,23.03
2018-11-27T18:10:51.801Z,23.52
2018-11-27T18:13:21.713Z,25.60
2018-11-27T18:15:50.756Z,23.00
2018-11-27T18:18:19.795Z,23.33
2018-11-27T18:20:48.840Z,25.72
2018-11-27T18:23:17.907Z,23.73
2018-11-27T18:25:46.967Z,22.57
2018-11-27T18:28:16.014Z,25.17
2018-11-27T18:30:45.677Z,27.73
2018-11-27T18:33:14.143Z,26.05
2018-11-27T18:35:43.179Z,25.70
2018-11-27T18:38:12.200Z,27.70
2018-11-27T18:40:41.237Z,27.07
2018-11-27T18:43:11.122Z,29.00
2018-11-27T18:45:40.202Z,27.37
2018-11-27T18:48:09.338Z,28.03
2018-11-27T18:50:38.435Z,29.43
2018-11-27T18:53:07.719Z,28.80
2018-11-27T18:55:36.836Z,30.40
2018-11-27T18:58:06.053Z,36.03
2018-11-27T19:00:35.515Z,29.77
2018-11-27T19:03:04.885Z,28.40
2018-11-27T19:05:33.938Z,36.27
2018-11-27T19:08:02.984Z,34.33
2018-11-27T19:10:33.528Z,34.73
2018-11-27T19:13:02.787Z,28.33
2018-11-27T19:15:36.023Z,35.52
2018-11-27T19:18:14.436Z,29.23
2018-11-27T19:20:43.573Z,28.63
2018-11-27T19:23:12.639Z,26.87
2018-11-27T19:25:41.694Z,27.73
2018-11-27T19:28:10.933Z,31.27
2018-11-27T19:30:39.969Z,27.77
2018-11-27T19:33:09.514Z,26.70
2018-11-27T19:35:38.891Z,31.60
2018-11-27T19:38:11.492Z,33.97
2018-11-27T19:40:40.582Z,30.57
2018-11-27T19:43:09.670Z,31.50
2018-11-27T19:45:38.863Z,26.95
2018-11-27T19:48:09.502Z,31.70
2018-11-27T19:50:38.693Z,30.13
2018-11-27T19:53:12.101Z,30.87
2018-11-27T19:55:42.624Z,32.03
2018-11-27T19:58:13.178Z,30.13
2018-11-27T20:00:45.204Z,29.27
2018-11-27T20:03:16.467Z,31.23
2018-11-27T20:05:52.684Z,50.13
2018-11-27T20:08:26.252Z,40.00
2018-11-27T20:10:56.999Z,58.07
2018-11-27T20:13:29.300Z,36.10
2018-11-27T20:16:01.236Z,33.18
2018-11-27T20:18:38.361Z,46.30
2018-11-27T20:21:19.220Z,45.17
2018-11-27T20:24:12.231Z,35.23
2018-11-27T20:26:43.294Z,26.07
2018-11-27T20:29:15.194Z,37.35
2018-11-27T20:31:50.918Z,35.97
2018-11-27T20:34:31.118Z,34.17
2018-11-27T20:37:03.085Z,35.13
2018-11-27T20:42:22.859Z,28.80
2018-11-27T20:45:19.167Z,27.00
2018-11-27T20:47:46.432Z,32.73
2018-11-27T20:50:25.049Z,28.90
2018-11-27T20:53:02.762Z,28.27
2018-11-27T20:55:32.697Z,34.37
2018-11-27T20:58:03.459Z,33.10
2018-11-27T21:00:36.817Z,33.70
2018-11-27T21:03:08.766Z,30.57
2018-11-27T21:05:38.636Z,31.10
2018-11-27T21:08:09.776Z,34.53
2018-11-27T21:10:42.178Z,31.10
2018-11-27T21:13:13.672Z,30.40
2018-11-27T21:15:44.542Z,33.65
2018-11-27T21:18:15.749Z,30.12
2018-11-27T21:20:46.765Z,29.77
2018-11-27T21:23:22.050Z,32.73
2018-11-27T21:26:21.765Z,31.19
2018-11-27T21:29:11.479Z,32.73
2018-11-27T21:31:44.637Z,29.57
2018-11-27T21:34:14.784Z,32.03
2018-11-27T21:36:45.592Z,28.93
2018-11-27T21:39:15.502Z,31.48
2018-11-27T21:41:47.095Z,32.53
2018-11-27T21:44:19.424Z,32.43
2018-11-27T21:46:53.075Z,30.63
2018-11-27T21:49:28.989Z,32.53
2018-11-27T21:52:04.030Z,35.43
2018-11-27T21:54:36.595Z,30.00
2018-11-27T21:57:10.702Z,34.93
2018-11-27T21:59:42.459Z,30.50
2018-11-27T22:02:14.091Z,32.13
2018-11-27T22:04:47.629Z,34.57
2018-11-27T22:07:21.566Z,33.85
2018-11-27T22:09:55.729Z,35.87
2018-11-27T22:12:31.957Z,35.37
2018-11-27T22:15:03.581Z,38.63
2018-11-27T22:17:35.658Z,33.43
2018-11-27T22:20:12.147Z,35.97
2018-11-27T22:22:43.352Z,36.43
2018-11-27T22:25:15.372Z,35.77
2018-11-27T22:27:45.934Z,33.13
2018-11-27T22:30:18.949Z,35.53
2018-11-27T22:32:57.954Z,37.03
2018-11-27T22:35:27.510Z,31.77
2018-11-27T22:38:01.893Z,34.93
2018-11-27T22:40:31.563Z,37.03
2018-11-27T22:43:02.812Z,36.88
2018-11-27T22:45:39.975Z,38.70
2018-11-27T22:48:12.266Z,41.25
2018-11-27T22:50:41.890Z,35.67
2018-11-27T22:53:12.126Z,42.40
2018-11-27T22:55:43.296Z,40.45
2018-11-27T22:58:13.937Z,35.43
2018-11-27T23:00:52.131Z,35.67
2018-11-27T23:03:22.708Z,34.23
2018-11-27T23:05:56.646Z,36.03
2018-11-27T23:08:26.370Z,34.23
2018-11-27T23:10:56.311Z,35.37
2018-11-27T23:13:27.668Z,34.83
2018-11-27T23:15:57.675Z,35.47
2018-11-27T23:18:27.007Z,31.10
2018-11-27T23:20:56.295Z,32.57
2018-11-27T23:23:25.750Z,39.10
2018-11-27T23:25:56.294Z,35.52
2018-11-27T23:28:25.689Z,37.00
2018-11-27T23:30:55.413Z,33.70
2018-11-27T23:33:25.409Z,34.80
2018-11-27T23:35:55.476Z,35.78
2018-11-27T23:38:25.039Z,39.53
2018-11-27T23:40:54.875Z,30.17
2018-11-27T23:43:24.669Z,30.47
2018-11-27T23:45:54.428Z,35.35
2018-11-27T23:48:23.947Z,34.80
2018-11-27T23:50:53.675Z,34.13
2018-11-27T23:53:24.125Z,30.17
2018-11-27T23:55:54.412Z,35.20
2018-11-27T23:58:24.541Z,35.40
